createdAt,value
2022-12-04T00:01:29.714Z,98727.78
2022-12-04T00:03:59.425Z,98728.09
2022-12-04T00:06:29.893Z,98719.09
2022-12-04T00:08:58.690Z,98726.84
2022-12-04T00:11:29.364Z,98727.47
2022-12-04T00:14:03.116Z,98725.22
2022-12-04T00:16:35.620Z,98723.59
2022-12-04T00:19:05.008Z,98718.44
2022-12-04T00:21:34.941Z,98711.34
2022-12-04T00:24:03.670Z,98714.72
2022-12-04T00:26:32.310Z,98711.63
2022-12-04T00:29:01.185Z,98708.56
2022-12-04T00:31:30.973Z,98708.06
2022-12-04T00:34:00.632Z,98706.31
2022-12-04T00:36:30.260Z,98703.91
2022-12-04T00:39:01.672Z,98706.53
2022-12-04T00:41:31.903Z,98704.13
2022-12-04T00:44:01.237Z,98725.22
2022-12-04T00:46:30.310Z,98715.53
2022-12-04T00:49:01.797Z,98709.22
2022-12-04T00:51:30.995Z,98710.34
2022-12-04T00:54:01.007Z,98702.94
2022-12-04T00:56:30.127Z,98701.16
2022-12-04T00:59:01.167Z,98704.75
2022-12-04T01:01:30.667Z,98707.66
2022-12-04T01:03:59.439Z,98712.31
2022-12-04T01:06:30.437Z,98699.84
2022-12-04T01:09:03.399Z,98698.47
2022-12-04T01:11:32.627Z,98701.81
2022-12-04T01:14:01.737Z,98699.06
2022-12-04T01:16:32.235Z,98696.81
2022-12-04T01:19:01.453Z,98697.44
2022-12-04T01:21:30.216Z,98700.00
2022-12-04T01:23:59.025Z,98698.09
2022-12-04T01:26:29.025Z,98707.22
2022-12-04T01:28:57.895Z,98701.63
2022-12-04T01:31:26.820Z,98701.31
2022-12-04T01:33:55.447Z,98694.88
2022-12-04T01:36:25.935Z,98693.09
2022-12-04T01:38:55.109Z,98693.28
2022-12-04T01:41:25.509Z,98694.53
2022-12-04T01:44:13.374Z,98697.44
2022-12-04T01:46:42.683Z,98695.03
2022-12-04T01:49:13.912Z,98687.13
2022-12-04T01:51:45.162Z,98686.94
2022-12-04T01:54:19.058Z,98691.66
2022-12-04T01:56:49.759Z,98704.56
2022-12-04T01:59:22.566Z,98702.59
2022-12-04T02:01:56.321Z,98705.84
2022-12-04T02:04:25.118Z,98695.69
2022-12-04T02:06:53.781Z,98696.59
2022-12-04T02:09:26.721Z,98686.47
2022-12-04T02:11:59.445Z,98692.88
2022-12-04T02:14:34.181Z,98685.47
2022-12-04T02:17:07.947Z,98686.75
2022-12-04T02:19:52.694Z,98692.59
2022-12-04T02:22:30.199Z,98688.13
2022-12-04T02:25:02.568Z,98684.56
2022-12-04T02:28:01.328Z,98683.94
2022-12-04T02:30:32.226Z,98682.94
2022-12-04T02:33:03.664Z,98679.38
2022-12-04T02:35:35.165Z,98683.41
2022-12-04T02:38:09.703Z,98679.97
2022-12-04T02:40:42.743Z,98671.47
2022-12-04T02:43:15.106Z,98679.03
2022-12-04T02:45:47.301Z,98677.91
2022-12-04T02:48:19.094Z,98673.59
2022-12-04T02:50:49.396Z,98674.81
2022-12-04T02:53:20.251Z,98667.59
2022-12-04T02:55:52.682Z,98669.53
2022-12-04T02:58:23.847Z,98673.06
2022-12-04T03:00:55.036Z,98668.72
2022-12-04T03:03:26.413Z,98650.97
2022-12-04T03:05:59.293Z,98664.81
2022-12-04T03:08:30.708Z,98661.13
2022-12-04T03:11:01.315Z,98657.75
2022-12-04T03:13:32.864Z,98659.66
2022-12-04T03:16:06.943Z,98662.91
2022-12-04T03:18:39.364Z,98651.47
2022-12-04T03:21:11.229Z,98654.69
2022-12-04T03:23:45.313Z,98662.59
2022-12-04T03:26:17.897Z,98656.81
2022-12-04T03:28:52.658Z,98660.19
2022-12-04T03:31:26.395Z,98650.69
2022-12-04T03:33:57.934Z,98645.97
2022-12-04T03:36:29.714Z,98651.28
2022-12-04T03:39:03.401Z,98646.16
2022-12-04T03:41:37.951Z,98632.63
2022-12-04T03:44:12.178Z,98645.53
2022-12-04T03:46:46.957Z,98645.34
2022-12-04T03:49:20.477Z,98630.34
2022-12-04T03:51:52.420Z,98645.16
2022-12-04T03:54:23.034Z,98644.22
2022-12-04T03:56:54.205Z,98640.38
2022-12-04T03:59:29.079Z,98643.56
2022-12-04T04:02:01.453Z,98651.16
2022-12-04T04:04:32.340Z,98660.53
2022-12-04T04:07:04.715Z,98661.63
2022-12-04T04:09:37.720Z,98660.84
2022-12-04T04:12:08.910Z,98656.81
2022-12-04T04:14:58.505Z,98660.03
2022-12-04T04:17:50.270Z,98671.66
2022-12-04T04:20:41.023Z,98671.66
2022-12-04T04:23:28.749Z,98672.47
2022-12-04T04:25:58.207Z,98678.78
2022-12-04T04:28:34.517Z,98673.59
2022-12-04T04:31:09.379Z,98676.16
2022-12-04T04:33:47.203Z,98685.66
2022-12-04T04:36:20.603Z,98678.25
2022-12-04T04:38:55.331Z,98677.31
2022-12-04T04:41:30.117Z,98678.59
2022-12-04T04:44:02.418Z,98674.56
2022-12-04T04:46:33.195Z,98670.06
2022-12-04T04:49:05.255Z,98665.88
2022-12-04T04:51:35.158Z,98671.72
2022-12-04T04:54:07.647Z,98660.44
2022-12-04T04:56:41.255Z,98669.75
2022-12-04T04:59:09.912Z,98676.88
2022-12-04T05:01:39.551Z,98675.59
2022-12-04T05:04:09.888Z,98672.31
2022-12-04T05:06:38.523Z,98676.53
2022-12-04T05:09:07.266Z,98677.84
2022-12-04T05:11:35.906Z,98674.91
2022-12-04T05:14:05.912Z,98675.41
2022-12-04T05:16:34.636Z,98680.38
2022-12-04T05:19:23.127Z,98679.09
2022-12-04T05:21:53.137Z,98678.09
2022-12-04T05:24:21.717Z,98672.00
2022-12-04T05:26:50.300Z,98666.03
2022-12-04T05:29:18.895Z,98672.31
2022-12-04T05:31:47.599Z,98674.09
2022-12-04T05:34:16.261Z,98670.53
2022-12-04T05:36:44.843Z,98667.00
2022-12-04T05:39:14.837Z,98662.19
2022-12-04T05:41:43.436Z,98668.63
2022-12-04T05:44:12.039Z,98656.84
2022-12-04T05:46:40.750Z,98657.50
2022-12-04T05:49:09.426Z,98651.22
2022-12-04T05:51:38.379Z,98657.50
2022-12-04T05:54:07.044Z,98656.38
2022-12-04T05:56:37.278Z,98662.00
2022-12-04T05:59:05.854Z,98658.72
2022-12-04T06:01:34.512Z,98665.84
2022-12-04T06:04:03.163Z,98658.91
2022-12-04T06:06:31.895Z,98666.19
2022-12-04T06:09:01.561Z,98659.75
2022-12-04T06:11:31.711Z,98663.78
2022-12-04T06:14:03.736Z,98658.44
2022-12-04T06:16:35.217Z,98664.22
2022-12-04T06:19:06.408Z,98661.53
2022-12-04T06:21:37.183Z,98658.13
2022-12-04T06:24:06.863Z,98657.44
2022-12-04T06:26:35.465Z,98648.56
2022-12-04T06:29:05.503Z,98653.44
2022-12-04T06:31:36.190Z,98645.97
2022-12-04T06:34:05.706Z,98659.66
2022-12-04T06:36:34.814Z,98655.94
2022-12-04T06:39:03.886Z,98652.75
2022-12-04T06:41:32.508Z,98654.03
2022-12-04T06:44:01.132Z,98664.38
2022-12-04T06:46:32.813Z,98658.25
2022-12-04T06:49:02.952Z,98660.81
2022-12-04T06:51:32.961Z,98663.69
2022-12-04T06:54:02.371Z,98661.28
2022-12-04T06:56:33.441Z,98658.88
2022-12-04T06:59:03.259Z,98669.69
2022-12-04T07:01:34.594Z,98666.00
2022-12-04T07:04:04.329Z,98662.13
2022-12-04T07:06:34.718Z,98661.44
2022-12-04T07:09:05.672Z,98674.69
2022-12-04T07:11:34.961Z,98676.69
2022-12-04T07:14:03.704Z,98682.94
2022-12-04T07:16:40.234Z,98661.00
2022-12-04T07:19:09.881Z,98669.03
2022-12-04T07:21:38.568Z,98674.03
2022-12-04T07:24:07.638Z,98661.47
2022-12-04T07:26:36.218Z,98666.81
2022-12-04T07:29:04.841Z,98665.84
2022-12-04T07:31:34.871Z,98651.63
2022-12-04T07:34:03.521Z,98657.56
2022-12-04T07:36:32.159Z,98658.19
2022-12-04T07:39:00.750Z,98664.19
2022-12-04T07:41:29.664Z,98656.59
2022-12-04T07:43:58.355Z,98664.97
2022-12-04T07:46:28.397Z,98670.75
2022-12-04T07:48:59.713Z,98679.34
2022-12-04T07:51:29.944Z,98676.41
2022-12-04T07:54:03.216Z,98669.78
2022-12-04T07:56:33.250Z,98680.72
2022-12-04T07:59:02.231Z,98669.59
2022-12-04T08:01:31.133Z,98665.41
2022-12-04T08:04:03.177Z,98664.13
2022-12-04T08:06:34.451Z,98669.59
2022-12-04T08:09:09.281Z,98674.59
2022-12-04T08:11:38.406Z,98671.66
2022-12-04T08:14:08.815Z,98666.41
2022-12-04T08:16:37.519Z,98673.28
2022-12-04T08:19:07.559Z,98664.94
2022-12-04T08:21:36.176Z,98672.34
2022-12-04T08:24:04.844Z,98671.31
2022-12-04T08:26:34.273Z,98671.19
2022-12-04T08:29:03.368Z,98686.00
2022-12-04T08:31:33.900Z,98675.16
2022-12-04T08:34:04.719Z,98687.56
2022-12-04T08:36:35.445Z,98692.78
2022-12-04T08:39:04.782Z,98691.63
2022-12-04T08:41:33.786Z,98687.28
2022-12-04T08:44:02.674Z,98689.53
2022-12-04T08:46:31.587Z,98683.75
2022-12-04T08:49:00.289Z,98693.88
2022-12-04T08:51:30.832Z,98699.22
2022-12-04T08:54:02.360Z,98701.81
2022-12-04T08:56:32.135Z,98704.22
2022-12-04T08:59:01.552Z,98701.16
2022-12-04T09:01:30.632Z,98718.56
2022-12-04T09:03:59.890Z,98720.34
2022-12-04T09:06:28.544Z,98715.00
2022-12-04T09:08:58.076Z,98709.06
2022-12-04T09:11:29.617Z,98708.72
2022-12-04T09:13:58.207Z,98720.47
2022-12-04T09:16:27.286Z,98717.69
2022-12-04T09:18:57.440Z,98718.19
2022-12-04T09:21:26.549Z,98687.09
2022-12-04T09:23:55.211Z,98703.34
2022-12-04T09:26:25.289Z,98703.97
2022-12-04T09:28:56.305Z,98691.38
2022-12-04T09:31:25.363Z,98686.22
2022-12-04T09:33:54.136Z,98678.81
2022-12-04T09:36:22.979Z,98681.72
2022-12-04T09:38:53.460Z,98679.31
2022-12-04T09:41:41.412Z,98670.41
2022-12-04T09:44:17.606Z,98657.03
2022-12-04T09:46:51.412Z,98660.53
2022-12-04T09:49:23.114Z,98640.84
2022-12-04T09:51:53.503Z,98637.63
2022-12-04T09:54:24.540Z,98633.72
2022-12-04T09:56:55.763Z,98629.81
2022-12-04T09:59:27.503Z,98628.66
2022-12-04T10:02:00.293Z,98610.75
2022-12-04T10:04:28.978Z,98618.03
2022-12-04T10:07:03.691Z,98617.22
2022-12-04T10:09:37.989Z,98613.84
2022-12-04T10:12:14.971Z,98614.63
2022-12-04T10:14:55.544Z,98614.63
2022-12-04T10:17:33.145Z,98612.88
2022-12-04T10:20:06.039Z,98615.00
2022-12-04T10:22:40.939Z,98614.63
2022-12-04T10:25:14.596Z,98608.50
2022-12-04T10:27:47.884Z,98611.09
2022-12-04T10:30:21.807Z,98614.03
2022-12-04T10:32:53.807Z,98620.97
2022-12-04T10:35:24.115Z,98643.59
2022-12-04T10:37:58.172Z,98645.03
2022-12-04T10:40:30.554Z,98641.97
2022-12-04T10:43:03.844Z,98644.56
2022-12-04T10:45:33.840Z,98644.84
2022-12-04T10:48:02.462Z,98636.50
2022-12-04T10:50:31.121Z,98641.66
2022-12-04T10:52:59.752Z,98635.31
2022-12-04T10:55:30.843Z,98618.66
2022-12-04T10:57:59.533Z,98625.31
2022-12-04T11:00:30.727Z,98617.91
2022-12-04T11:03:02.347Z,98616.81
2022-12-04T11:05:33.597Z,98611.97
2022-12-04T11:08:05.237Z,98621.16
2022-12-04T11:10:36.698Z,98630.88
2022-12-04T11:13:07.782Z,98623.31
2022-12-04T11:15:37.507Z,98627.84
2022-12-04T11:18:18.171Z,98616.81
2022-12-04T11:20:52.265Z,98614.06
2022-12-04T11:23:21.294Z,98604.66
2022-12-04T11:25:51.479Z,98596.28
2022-12-04T11:28:40.194Z,98594.44
2022-12-04T11:31:11.364Z,98585.06
2022-12-04T11:33:45.240Z,98607.19
2022-12-04T11:36:21.024Z,98616.69
2022-12-04T11:38:50.000Z,98622.56
2022-12-04T11:41:26.784Z,98632.19
2022-12-04T11:43:59.863Z,98627.34
2022-12-04T11:46:30.746Z,98619.41
2022-12-04T11:49:02.866Z,98621.53
2022-12-04T11:51:40.410Z,98621.53
2022-12-04T11:54:18.494Z,98620.38
2022-12-04T11:56:50.601Z,98613.09
2022-12-04T11:59:34.149Z,98598.88
2022-12-04T12:02:14.576Z,98592.59
2022-12-04T12:04:56.255Z,98578.72
2022-12-04T12:07:32.727Z,98579.81
2022-12-04T12:10:05.279Z,98577.50
2022-12-04T12:12:42.572Z,98583.94
2022-12-04T12:15:18.259Z,98576.00
2022-12-04T12:17:51.356Z,98571.47
2022-12-04T12:20:25.575Z,98571.78
2022-12-04T12:23:03.827Z,98557.72
2022-12-04T12:25:39.053Z,98554.19
2022-12-04T12:28:16.761Z,98555.44
2022-12-04T12:31:04.109Z,98558.03
2022-12-04T12:33:37.069Z,98564.44
2022-12-04T12:36:09.822Z,98564.28
2022-12-04T12:38:40.506Z,98565.25
2022-12-04T12:41:13.412Z,98562.84
2022-12-04T12:43:44.315Z,98555.44
2022-12-04T12:46:15.992Z,98563.00
2022-12-04T12:48:47.636Z,98561.50
2022-12-04T12:51:30.184Z,98561.94
2022-12-04T12:54:05.611Z,98552.59
2022-12-04T12:56:38.451Z,98556.59
2022-12-04T12:59:11.678Z,98556.47
2022-12-04T13:01:45.128Z,98543.97
2022-12-04T13:04:17.188Z,98543.19
2022-12-04T13:06:50.099Z,98548.34
2022-12-04T13:09:25.373Z,98559.66
2022-12-04T13:12:00.206Z,98561.44
2022-12-04T13:14:28.821Z,98566.44
2022-12-04T13:17:00.364Z,98570.97
2022-12-04T13:19:30.991Z,98582.47
2022-12-04T13:22:13.029Z,98589.59
2022-12-04T13:24:57.001Z,98589.06
2022-12-04T13:27:33.496Z,98588.88
2022-12-04T13:30:11.828Z,98565.13
2022-12-04T13:33:14.030Z,98565.13
2022-12-04T13:36:16.199Z,98560.28
2022-12-04T13:38:58.523Z,98571.63
2022-12-04T13:41:28.267Z,98575.00
2022-12-04T13:44:00.640Z,98578.38
2022-12-04T13:46:34.112Z,98574.19
2022-12-04T13:49:10.188Z,98569.81
2022-12-04T13:51:41.126Z,98569.03
2022-12-04T13:54:26.066Z,98565.00
2022-12-04T13:56:56.475Z,98577.94
2022-12-04T13:59:37.020Z,98565.97
2022-12-04T14:02:23.062Z,98559.84
2022-12-04T14:05:00.465Z,98546.91
2022-12-04T14:07:32.257Z,98526.34
2022-12-04T14:10:05.207Z,98536.88
2022-12-04T14:12:36.383Z,98538.03
2022-12-04T14:15:07.241Z,98552.13
2022-12-04T14:17:37.361Z,98564.22
2022-12-04T14:20:10.148Z,98571.00
2022-12-04T14:22:44.033Z,98574.38
2022-12-04T14:25:35.598Z,98583.13
2022-12-04T14:28:22.941Z,98585.72
2022-12-04T14:31:03.034Z,98577.44
2022-12-04T14:33:32.671Z,98575.16
2022-12-04T14:36:04.117Z,98568.53
2022-12-04T14:38:33.845Z,98569.69
2022-12-04T14:41:04.710Z,98571.91
2022-12-04T14:43:39.997Z,98570.28
2022-12-04T14:46:15.588Z,98564.94
2022-12-04T14:48:49.838Z,98563.00
2022-12-04T14:51:23.938Z,98567.84
2022-12-04T14:53:57.275Z,98571.56
2022-12-04T14:56:41.787Z,98569.34
2022-12-04T14:59:16.883Z,98571.91
2022-12-04T15:01:46.637Z,98592.72
2022-12-04T15:04:22.454Z,98595.81
2022-12-04T15:06:56.792Z,98599.19
2022-12-04T15:09:46.691Z,98596.78
2022-12-04T15:12:37.461Z,98603.47
2022-12-04T15:15:14.616Z,98602.50
2022-12-04T15:17:43.292Z,98608.09
2022-12-04T15:20:15.820Z,98606.41
2022-12-04T15:22:44.590Z,98600.88
2022-12-04T15:25:18.645Z,98608.31
2022-12-04T15:27:49.688Z,98607.72
2022-12-04T15:30:20.296Z,98599.97
2022-12-04T15:32:51.292Z,98603.06
2022-12-04T15:35:23.246Z,98603.50
2022-12-04T15:37:52.048Z,98588.75
2022-12-04T15:40:22.992Z,98600.56
2022-12-04T15:42:53.517Z,98582.13
2022-12-04T15:45:25.716Z,98593.75
2022-12-04T15:47:55.754Z,98588.22
2022-12-04T15:50:26.993Z,98586.16
2022-12-04T15:53:01.955Z,98590.88
2022-12-04T15:55:32.318Z,98589.63
2022-12-04T15:58:04.251Z,98584.72
2022-12-04T16:00:34.944Z,98585.38
2022-12-04T16:03:07.649Z,98588.53
2022-12-04T16:05:37.425Z,98579.16
2022-12-04T16:08:22.989Z,98580.44
2022-12-04T16:10:59.552Z,98580.91
2022-12-04T16:13:31.590Z,98580.91
2022-12-04T16:16:01.108Z,98570.47
2022-12-04T16:18:30.147Z,98567.44
2022-12-04T16:20:58.817Z,98571.47
2022-12-04T16:23:27.877Z,98562.28
2022-12-04T16:25:56.565Z,98569.38
2022-12-04T16:28:25.181Z,98574.13
2022-12-04T16:30:55.264Z,98568.25
2022-12-04T16:33:24.104Z,98566.81
2022-12-04T16:35:52.668Z,98552.28
2022-12-04T16:38:21.319Z,98557.28
2022-12-04T16:40:49.898Z,98542.56
2022-12-04T16:43:18.812Z,98538.03
2022-12-04T16:45:49.424Z,98544.38
2022-12-04T16:48:19.415Z,98529.66
2022-12-04T16:50:48.277Z,98536.63
2022-12-04T16:53:17.925Z,98534.28
2022-12-04T16:55:47.858Z,98533.69
2022-12-04T16:58:17.369Z,98529.81
2022-12-04T17:00:50.429Z,98528.38
2022-12-04T17:03:31.605Z,98525.00
2022-12-04T17:06:01.280Z,98544.25
2022-12-04T17:08:29.999Z,98567.50
2022-12-04T17:10:59.035Z,98573.47
2022-12-04T17:13:27.664Z,98583.13
2022-12-04T17:15:56.320Z,98589.88
2022-12-04T17:18:26.330Z,98593.28
2022-12-04T17:20:54.978Z,98590.88
2022-12-04T17:23:23.692Z,98593.66
2022-12-04T17:25:52.335Z,98592.16
2022-12-04T17:28:21.018Z,98590.19
2022-12-04T17:30:49.686Z,98592.78
2022-12-04T17:33:18.275Z,98605.06
2022-12-04T17:35:48.298Z,98607.66
2022-12-04T17:38:16.937Z,98604.25
2022-12-04T17:40:45.609Z,98598.63
2022-12-04T17:43:18.872Z,98599.91
2022-12-04T17:45:50.466Z,98601.31
2022-12-04T17:48:19.118Z,98598.56
2022-12-04T17:50:49.114Z,98593.13
2022-12-04T17:53:17.939Z,98595.88
2022-12-04T17:55:46.527Z,98597.31
2022-12-04T17:58:15.258Z,98595.69
2022-12-04T18:00:43.884Z,98597.31
2022-12-04T18:03:12.704Z,98599.25
2022-12-04T18:05:41.427Z,98598.81
2022-12-04T18:08:11.544Z,98606.41
2022-12-04T18:10:40.217Z,98599.97
2022-12-04T18:13:08.872Z,98605.75
2022-12-04T18:15:37.488Z,98608.50
2022-12-04T18:18:06.142Z,98606.75
2022-12-04T18:20:34.794Z,98613.06
2022-12-04T18:23:03.459Z,98612.53
2022-12-04T18:25:33.438Z,98606.03
2022-12-04T18:28:02.124Z,98606.56
2022-12-04T18:30:30.724Z,98619.94
2022-12-04T18:32:59.383Z,98618.22
2022-12-04T18:35:28.006Z,98613.31
2022-12-04T18:37:56.651Z,98623.47
2022-12-04T18:40:25.324Z,98621.91
2022-12-04T18:42:55.306Z,98620.50
2022-12-04T18:45:25.748Z,98618.78
2022-12-04T18:47:54.442Z,98618.84
2022-12-04T18:50:23.247Z,98620.28
2022-12-04T18:52:58.806Z,98626.88
2022-12-04T18:55:29.692Z,98630.16
2022-12-04T18:57:59.731Z,98629.13
2022-12-04T19:00:28.534Z,98629.31
2022-12-04T19:02:57.333Z,98636.41
2022-12-04T19:05:25.953Z,98631.41
2022-12-04T19:07:54.745Z,98642.56
2022-12-04T19:10:24.173Z,98641.22
2022-12-04T19:12:53.604Z,98633.28
2022-12-04T19:15:23.671Z,98640.72
2022-12-04T19:17:52.260Z,98644.09
2022-12-04T19:20:21.293Z,98639.38
2022-12-04T19:22:50.071Z,98644.41
2022-12-04T19:25:18.729Z,98644.25
2022-12-04T19:27:47.645Z,98650.38
2022-12-04T19:30:16.354Z,98666.19
2022-12-04T19:32:46.369Z,98668.78
2022-12-04T19:35:15.057Z,98671.75
2022-12-04T19:37:46.956Z,98678.16
2022-12-04T19:40:20.058Z,98681.25
2022-12-04T19:42:48.772Z,98682.53
2022-12-04T19:45:17.735Z,98682.19
2022-12-04T19:47:47.727Z,98689.47
2022-12-04T19:50:16.604Z,98689.94
2022-12-04T19:52:45.389Z,98688.78
2022-12-04T19:55:14.083Z,98696.19
2022-12-04T19:57:42.806Z,98692.66
2022-12-04T20:00:12.045Z,98689.72
2022-12-04T20:02:40.806Z,98688.75
2022-12-04T20:05:11.276Z,98691.22
2022-12-04T20:07:39.976Z,98692.66
2022-12-04T20:10:09.440Z,98688.09
2022-12-04T20:12:38.075Z,98696.50
2022-12-04T20:15:07.219Z,98699.09
2022-12-04T20:17:35.860Z,98691.16
2022-12-04T20:20:04.914Z,98700.38
2022-12-04T20:22:35.639Z,98705.00
2022-12-04T20:25:04.658Z,98705.50
2022-12-04T20:27:33.388Z,98710.00
2022-12-04T20:30:02.090Z,98708.41
2022-12-04T20:32:30.785Z,98713.25
2022-12-04T20:34:59.365Z,98715.97
2022-12-04T20:37:28.111Z,98710.66
2022-12-04T20:39:58.367Z,98704.84
2022-12-04T20:42:33.114Z,98698.22
2022-12-04T20:45:02.842Z,98702.25
2022-12-04T20:47:33.126Z,98691.28
2022-12-04T20:50:01.826Z,98699.84
2022-12-04T20:52:30.558Z,98697.09
2022-12-04T20:55:00.535Z,98688.88
2022-12-04T20:57:31.165Z,98696.13
2022-12-04T20:59:59.815Z,98702.09
2022-12-04T21:02:28.719Z,98709.84
2022-12-04T21:04:57.440Z,98703.88
2022-12-04T21:07:26.252Z,98704.16
2022-12-04T21:09:55.281Z,98704.16
2022-12-04T21:12:43.409Z,98707.38
2022-12-04T21:15:29.696Z,98698.81
2022-12-04T21:18:01.207Z,98696.38
2022-12-04T21:20:29.949Z,98704.16
2022-12-04T21:22:58.596Z,98702.38
2022-12-04T21:25:27.881Z,98701.56
2022-12-04T21:27:57.900Z,98706.47
2022-12-04T21:30:26.576Z,98707.72
2022-12-04T21:32:55.372Z,98705.31
2022-12-04T21:35:23.993Z,98709.00
2022-12-04T21:37:52.605Z,98707.22
2022-12-04T21:40:21.285Z,98699.97
2022-12-04T21:42:49.941Z,98714.50
2022-12-04T21:45:20.054Z,98713.53
2022-12-04T21:47:48.632Z,98710.59
2022-12-04T21:50:17.322Z,98720.94
2022-12-04T21:52:45.980Z,98716.59
2022-12-04T21:55:14.705Z,98716.09
2022-12-04T21:57:43.400Z,98723.88
2022-12-04T22:00:13.368Z,98736.00
2022-12-04T22:02:43.329Z,98730.66
2022-12-04T22:05:12.028Z,98733.25
2022-12-04T22:07:40.697Z,98737.44
2022-12-04T22:10:11.012Z,98738.41
2022-12-04T22:12:49.533Z,98740.03
2022-12-04T22:15:18.749Z,98741.78
2022-12-04T22:17:48.752Z,98744.53
2022-12-04T22:20:18.180Z,98748.09
2022-12-04T22:22:46.902Z,98745.50
2022-12-04T22:25:15.893Z,98748.97
2022-12-04T22:27:44.533Z,98754.00
2022-12-04T22:30:14.068Z,98758.41
2022-12-04T22:32:42.656Z,98761.16
2022-12-04T22:35:12.738Z,98757.88
2022-12-04T22:37:44.582Z,98757.72
2022-12-04T22:40:14.205Z,98758.19
2022-12-04T22:42:42.917Z,98756.00
2022-12-04T22:45:12.147Z,98760.66
2022-12-04T22:47:40.858Z,98767.19
2022-12-04T22:50:09.902Z,98762.13
2022-12-04T22:52:40.110Z,98753.06
2022-12-04T22:55:09.172Z,98757.88
2022-12-04T22:57:37.904Z,98755.00
2022-12-04T23:00:09.275Z,98765.94
2022-12-04T23:02:37.989Z,98748.97
2022-12-04T23:05:06.780Z,98760.44
2022-12-04T23:07:35.520Z,98756.88
2022-12-04T23:10:07.166Z,98760.28
2022-12-04T23:12:35.771Z,98773.03
2022-12-04T23:15:04.674Z,98758.19
2022-12-04T23:17:33.320Z,98759.13
2022-12-04T23:20:01.960Z,98757.50
2022-12-04T23:22:30.615Z,98759.13
2022-12-04T23:24:59.235Z,98770.91
2022-12-04T23:27:29.216Z,98771.25
2022-12-04T23:29:57.851Z,98783.38
2022-12-04T23:32:26.437Z,98785.16
2022-12-04T23:34:55.072Z,98800.66
2022-12-04T23:37:23.626Z,98809.88
2022-12-04T23:39:52.247Z,98815.03
2022-12-04T23:42:20.904Z,98818.25
2022-12-04T23:44:50.967Z,98813.91
2022-12-04T23:47:19.620Z,98837.16
2022-12-04T23:49:48.482Z,98849.44
2022-12-04T23:52:17.123Z,98850.41
2022-12-04T23:54:45.809Z,98840.06
2022-12-04T23:57:14.470Z,98844.09
2022-12-04T23:59:43.097Z,98844.09
